Terminal Aerodrome Forecast
Issued by NWS Grand Forks, ND

Home | Current Version | Previous Version | Text Only | Print | Product List | Glossary On
Versions: 1 2 3 4 5 6 7 8 9 10 11 12 13 14
000
FTUS43 KFGF 031720
TAFGFK
TAF
KGFK 031720Z 0318/0418 32013G20KT P6SM FEW040
     FM040100 36006KT P6SM SKC
     FM040600 09006KT P6SM SKC=

USA.gov is the U.S. government's official web portal to all federal, state and local government web resources and services.